Time;durP1;ratioP1;P1;durP2;ratioP2;P2;SDS_P1;SDS_P2;PMS_P1;PMS_P2;Temp;Humidity;BMP_temperature;BMP_pressure;BME280_temperature;BME280_humidity;BME280_pressure;Samples;Min_cycle;Max_cycle;Signal;HPM_P1;HPM_P2
2022/08/05 00:01:40;;;;;;;7.20;2.83;;;18.90;99.90;;;;;;5071924;28;20044;-62
2022/08/05 00:04:05;;;;;;;9.25;2.45;;;18.90;99.90;;;;;;5071788;28;20370;-62
2022/08/05 00:06:31;;;;;;;8.82;2.55;;;19.00;99.90;;;;;;5071751;28;20067;-62
2022/08/05 00:08:57;;;;;;;9.00;2.90;;;18.90;99.90;;;;;;5071755;28;20378;-63
2022/08/05 00:11:22;;;;;;;7.15;2.20;;;18.90;99.90;;;;;;5071973;28;20094;-62
2022/08/05 00:13:48;;;;;;;10.20;3.08;;;19.00;99.90;;;;;;5070774;28;20032;-63
2022/08/05 00:16:14;;;;;;;8.57;2.28;;;19.00;99.90;;;;;;5071935;28;20044;-63
2022/08/05 00:18:43;;;;;;;8.63;2.95;;;18.90;99.90;;;;;;5071668;28;20554;-62
2022/08/05 00:21:09;;;;;;;6.63;2.70;;;18.90;99.90;;;;;;5053071;28;20041;-62
2022/08/05 00:23:36;;;;;;;8.95;2.80;;;18.90;99.90;;;;;;5051610;28;20476;-62
2022/08/05 00:26:02;;;;;;;11.00;3.00;;;18.80;99.90;;;;;;5051604;28;20485;-63
2022/08/05 00:28:27;;;;;;;6.45;2.85;;;18.80;99.90;;;;;;5051829;28;20033;-63
2022/08/05 00:30:53;;;;;;;9.50;3.40;;;18.70;99.90;;;;;;5051706;28;20508;-63
2022/08/05 00:33:18;;;;;;;7.50;2.60;;;18.70;99.90;;;;;;5051637;28;20048;-62
2022/08/05 00:35:44;;;;;;;8.02;2.58;;;18.70;99.90;;;;;;5051424;28;20052;-61
2022/08/05 00:38:10;;;;;;;7.95;2.60;;;18.70;99.90;;;;;;5067182;28;20110;-62
2022/08/05 00:40:51;;;;;;;9.68;3.47;;;18.70;99.90;;;;;;5051876;28;20464;-62
2022/08/05 00:43:17;;;;;;;7.25;2.97;;;18.60;99.90;;;;;;5051930;28;20120;-62
2022/08/05 00:45:43;;;;;;;8.80;3.20;;;18.60;99.90;;;;;;5051461;28;20136;-62
2022/08/05 00:48:21;;;;;;;7.35;3.22;;;18.50;99.90;;;;;;5051395;28;20060;-62
2022/08/05 00:50:48;;;;;;;8.15;3.50;;;18.50;99.90;;;;;;5051586;28;20045;-62
2022/08/05 00:53:17;;;;;;;7.05;3.08;;;18.50;99.90;;;;;;5051369;28;20070;-62
2022/08/05 00:55:43;;;;;;;8.93;3.10;;;18.40;99.90;;;;;;5051250;28;20436;-62
2022/08/05 00:58:15;;;;;;;7.65;3.55;;;18.30;99.90;;;;;;5051339;28;20041;-62
2022/08/05 01:00:41;;;;;;;7.18;3.33;;;18.30;99.90;;;;;;5053700;28;20339;-62
2022/08/05 01:03:07;;;;;;;6.88;3.03;;;18.20;99.90;;;;;;5054923;28;20048;-62
2022/08/05 01:05:33;;;;;;;9.32;3.78;;;18.10;99.90;;;;;;5055135;28;20051;-62
2022/08/05 01:07:58;;;;;;;12.63;4.03;;;18.00;99.90;;;;;;5054911;28;20033;-62
2022/08/05 01:10:30;;;;;;;7.60;3.33;;;18.10;99.90;;;;;;5054944;28;20037;-61
2022/08/05 01:13:05;;;;;;;9.85;4.43;;;18.10;99.90;;;;;;5054849;28;20374;-62
2022/08/05 01:15:35;;;;;;;9.55;4.47;;;18.10;99.90;;;;;;5054630;28;20076;-63
2022/08/05 01:18:05;;;;;;;7.55;3.67;;;18.30;99.90;;;;;;5054942;28;20112;-62
2022/08/05 01:21:06;;;;;;;6.95;3.78;;;18.30;99.90;;;;;;5054785;28;20045;-63
2022/08/05 01:23:51;;;;;;;11.50;5.13;;;18.40;99.90;;;;;;5054851;28;20099;-63
2022/08/05 01:26:41;;;;;;;9.60;4.30;;;18.40;99.90;;;;;;5055088;28;20419;-63
2022/08/05 01:29:19;;;;;;;9.73;4.47;;;18.50;99.90;;;;;;5054604;28;20116;-63
2022/08/05 01:31:52;;;;;;;7.90;4.03;;;18.40;99.90;;;;;;5054671;28;20040;-62
2022/08/05 01:34:25;;;;;;;8.18;3.75;;;18.30;99.90;;;;;;5054529;28;20354;-62
2022/08/05 01:37:15;;;;;;;7.75;3.83;;;18.40;99.90;;;;;;5053468;28;20374;-62
2022/08/05 01:39:45;;;;;;;9.18;4.25;;;18.30;99.90;;;;;;5034571;28;20461;-62
2022/08/05 01:42:13;;;;;;;9.30;4.22;;;18.40;99.90;;;;;;5034506;28;20030;-63
2022/08/05 01:44:39;;;;;;;10.55;4.78;;;18.40;99.90;;;;;;5034254;28;20526;-62
2022/08/05 01:47:07;;;;;;;9.63;4.47;;;18.20;99.90;;;;;;5034537;28;20045;-63
2022/08/05 01:49:35;;;;;;;11.90;4.03;;;18.10;99.90;;;;;;5034552;28;20554;-63
2022/08/05 01:52:02;;;;;;;10.13;3.80;;;18.10;99.90;;;;;;5034351;28;20046;-63
2022/08/05 01:54:51;;;;;;;9.93;4.95;;;18.10;99.90;;;;;;5034615;28;20398;-62
2022/08/05 01:57:29;;;;;;;8.80;4.20;;;18.10;99.90;;;;;;5034337;28;20046;-62
2022/08/05 01:59:58;;;;;;;8.30;4.30;;;18.20;99.90;;;;;;5033176;28;20379;-62
2022/08/05 02:02:26;;;;;;;7.00;4.10;;;18.20;99.90;;;;;;5034533;28;20056;-59
2022/08/05 02:04:55;;;;;;;10.23;4.93;;;18.30;99.90;;;;;;5034364;28;20038;-62
2022/08/05 02:07:22;;;;;;;9.90;4.22;;;18.30;99.90;;;;;;5033880;28;20141;-62
2022/08/05 02:09:48;;;;;;;6.70;4.10;;;18.30;99.90;;;;;;5033872;28;20046;-62
2022/08/05 02:12:26;;;;;;;8.38;4.05;;;18.40;99.90;;;;;;5033985;28;20553;-62
2022/08/05 02:15:20;;;;;;;7.90;3.67;;;18.40;99.90;;;;;;5033838;28;20510;-62
2022/08/05 02:18:01;;;;;;;11.80;3.97;;;18.30;99.90;;;;;;5030618;28;20053;-62
2022/08/05 02:20:31;;;;;;;7.05;3.30;;;18.10;99.90;;;;;;5046449;28;20055;-62
2022/08/05 02:23:00;;;;;;;8.05;3.38;;;18.20;99.90;;;;;;5053696;28;20535;-62
2022/08/05 02:25:32;;;;;;;10.23;3.42;;;18.20;99.90;;;;;;5053687;28;20334;-63
2022/08/05 02:28:00;;;;;;;7.65;3.22;;;18.10;99.90;;;;;;5053571;28;20481;-63
2022/08/05 02:30:30;;;;;;;8.57;3.40;;;18.10;99.90;;;;;;5053902;28;20086;-62
2022/08/05 02:32:57;;;;;;;7.63;3.67;;;18.10;99.90;;;;;;5053982;28;20045;-63
2022/08/05 02:35:27;;;;;;;8.75;3.92;;;18.10;99.90;;;;;;5053704;28;20065;-63
2022/08/05 02:37:54;;;;;;;9.80;3.92;;;18.10;99.90;;;;;;5059458;28;20044;-61
2022/08/05 02:40:22;;;;;;;7.47;3.58;;;18.00;99.90;;;;;;5073266;28;20397;-62
2022/08/05 02:42:49;;;;;;;7.00;3.30;;;18.00;99.90;;;;;;5073453;28;20412;-62
2022/08/05 02:45:16;;;;;;;7.53;3.42;;;18.10;99.90;;;;;;5071924;28;20044;-62
2022/08/05 02:47:43;;;;;;;6.53;3.00;;;18.10;99.90;;;;;;5073056;28;20043;-62
2022/08/05 02:50:12;;;;;;;8.55;3.60;;;18.00;99.90;;;;;;5073205;28;20564;-63
2022/08/05 02:52:40;;;;;;;7.90;3.00;;;17.80;99.90;;;;;;5073063;28;20048;-62
2022/08/05 02:55:08;;;;;;;7.45;4.15;;;17.70;99.90;;;;;;5073307;28;20139;-63
2022/08/05 02:57:34;;;;;;;7.97;3.22;;;17.90;99.90;;;;;;5072766;28;20052;-63
2022/08/05 03:00:00;;;;;;;7.28;3.00;;;17.90;99.90;;;;;;5073029;28;20071;-63
2022/08/05 03:02:32;;;;;;;8.38;3.28;;;17.90;99.90;;;;;;5072868;28;20048;-63
2022/08/05 03:04:59;;;;;;;7.13;4.13;;;17.80;99.90;;;;;;5072804;28;20395;-63
2022/08/05 03:07:27;;;;;;;9.52;3.50;;;17.90;99.90;;;;;;5072655;28;20037;-63
2022/08/05 03:09:53;;;;;;;6.40;3.20;;;17.90;99.90;;;;;;5072540;28;20449;-63
2022/08/05 03:12:38;;;;;;;8.57;3.90;;;18.00;99.90;;;;;;5072829;28;20361;-63
2022/08/05 03:15:06;;;;;;;8.20;3.50;;;17.70;99.90;;;;;;5072378;28;20065;-62
2022/08/05 03:17:32;;;;;;;8.30;3.60;;;17.90;99.90;;;;;;5072465;28;20040;-62
2022/08/05 03:19:58;;;;;;;10.27;3.90;;;17.80;99.90;;;;;;5063828;28;20048;-63
2022/08/05 03:22:24;;;;;;;20.45;4.20;;;17.90;99.90;;;;;;5052174;28;20029;-63
2022/08/05 03:24:51;;;;;;;7.78;3.20;;;17.80;99.90;;;;;;5052522;28;20492;-63
2022/08/05 03:27:18;;;;;;;7.20;3.60;;;17.80;99.90;;;;;;5052440;28;20033;-63
2022/08/05 03:29:44;;;;;;;8.05;3.15;;;17.70;99.90;;;;;;5052392;28;20037;-62
2022/08/05 03:32:10;;;;;;;8.68;3.70;;;17.80;99.90;;;;;;5052348;28;20037;-63
2022/08/05 03:34:37;;;;;;;7.15;3.47;;;17.80;99.90;;;;;;5051946;28;20061;-62
2022/08/05 03:37:04;;;;;;;8.93;3.35;;;17.80;99.90;;;;;;5052099;28;20048;-63
2022/08/05 03:39:30;;;;;;;6.72;3.72;;;17.70;99.90;;;;;;5071637;28;20133;-63
2022/08/05 03:41:56;;;;;;;7.00;3.20;;;17.60;99.90;;;;;;5072598;28;20040;-63
2022/08/05 03:44:22;;;;;;;7.32;3.38;;;17.70;99.90;;;;;;5072303;28;20380;-63
2022/08/05 03:46:48;;;;;;;8.38;3.30;;;17.70;99.90;;;;;;5071094;28;20055;-62
2022/08/05 03:49:14;;;;;;;9.10;3.85;;;17.70;99.90;;;;;;5072076;28;20037;-63
2022/08/05 03:52:02;;;;;;;5.93;3.22;;;17.70;99.90;;;;;;5072193;28;20503;-63
2022/08/05 03:54:52;;;;;;;7.35;3.50;;;17.60;99.90;;;;;;5071824;28;20084;-62
2022/08/05 03:57:23;;;;;;;8.70;3.67;;;17.70;99.90;;;;;;5072208;28;20037;-62
2022/08/05 03:59:55;;;;;;;6.63;3.53;;;17.70;99.90;;;;;;5072424;28;20040;-62
2022/08/05 04:02:24;;;;;;;6.30;3.40;;;17.70;99.90;;;;;;5072329;28;20040;-63
2022/08/05 04:04:51;;;;;;;7.07;3.92;;;17.70;99.90;;;;;;5072355;28;20048;-62
2022/08/05 04:07:17;;;;;;;8.48;3.85;;;17.60;99.90;;;;;;5071158;28;20086;-62
2022/08/05 04:09:43;;;;;;;8.55;3.38;;;17.70;99.90;;;;;;5072272;28;20292;-62
2022/08/05 04:12:09;;;;;;;6.55;4.00;;;17.70;99.90;;;;;;5072213;28;20556;-63
2022/08/05 04:14:35;;;;;;;9.65;4.07;;;17.50;99.90;;;;;;5071920;28;20393;-62
2022/08/05 04:17:02;;;;;;;8.43;3.65;;;17.30;99.90;;;;;;5072009;28;20630;-62
2022/08/05 04:19:28;;;;;;;7.57;4.18;;;17.30;99.90;;;;;;5067719;28;20473;-62
2022/08/05 04:21:54;;;;;;;7.10;3.80;;;17.40;99.90;;;;;;5051936;28;20041;-63
2022/08/05 04:24:20;;;;;;;6.00;3.72;;;17.40;99.90;;;;;;5051957;28;20044;-63
2022/08/05 04:26:46;;;;;;;8.05;3.95;;;17.50;99.90;;;;;;5052047;28;20192;-62
2022/08/05 04:29:11;;;;;;;6.47;3.90;;;17.40;99.90;;;;;;5051951;28;20386;-62
2022/08/05 04:31:37;;;;;;;6.55;3.78;;;17.50;99.90;;;;;;5052185;28;20048;-63
2022/08/05 04:34:03;;;;;;;8.90;4.45;;;17.50;99.90;;;;;;5052082;28;20044;-63
2022/08/05 04:36:28;;;;;;;7.13;3.97;;;17.50;99.90;;;;;;5055772;28;20061;-64
2022/08/05 04:38:54;;;;;;;10.43;5.35;;;17.50;99.90;;;;;;5070380;28;20116;-63
2022/08/05 04:41:20;;;;;;;8.60;5.85;;;17.50;99.90;;;;;;5075978;28;20098;-63
2022/08/05 04:43:45;;;;;;;8.63;5.30;;;17.50;99.90;;;;;;5075863;28;20036;-63
2022/08/05 04:46:11;;;;;;;9.43;6.22;;;17.50;99.90;;;;;;5075852;28;20109;-63
2022/08/05 04:48:37;;;;;;;9.70;5.57;;;17.30;99.90;;;;;;5075843;28;20036;-61
2022/08/05 04:51:02;;;;;;;8.18;5.35;;;17.20;99.90;;;;;;5075800;28;20374;-63
2022/08/05 04:53:28;;;;;;;10.13;5.43;;;17.10;99.90;;;;;;5075479;28;20091;-63
2022/08/05 04:55:54;;;;;;;11.20;5.53;;;17.10;99.90;;;;;;5075499;28;20101;-62
2022/08/05 04:58:19;;;;;;;9.82;5.75;;;17.00;99.90;;;;;;5075455;28;20091;-63
2022/08/05 05:00:45;;;;;;;12.75;5.72;;;16.90;99.90;;;;;;5075711;28;20103;-62
2022/08/05 05:03:11;;;;;;;8.95;6.10;;;16.90;99.90;;;;;;5075510;28;20447;-62
2022/08/05 05:05:37;;;;;;;11.43;6.65;;;16.90;99.90;;;;;;5075296;28;20434;-62
2022/08/05 05:08:07;;;;;;;8.98;6.00;;;16.90;99.90;;;;;;5075403;28;20484;-63
2022/08/05 05:10:41;;;;;;;11.25;6.50;;;16.80;99.90;;;;;;5075083;28;20037;-62
2022/08/05 05:13:08;;;;;;;8.05;5.78;;;16.80;99.90;;;;;;5074807;28;20044;-63
2022/08/05 05:15:34;;;;;;;8.48;5.57;;;16.90;99.90;;;;;;5075020;28;20068;-63
2022/08/05 05:17:59;;;;;;;7.95;5.57;;;16.80;99.90;;;;;;5074976;28;20441;-62
2022/08/05 05:20:25;;;;;;;7.85;5.30;;;16.70;99.90;;;;;;5062569;28;20040;-62
2022/08/05 05:22:51;;;;;;;9.05;5.95;;;16.60;99.90;;;;;;5055040;28;20413;-62
2022/08/05 05:25:16;;;;;;;9.38;5.70;;;16.70;99.90;;;;;;5054848;28;20127;-62
2022/08/05 05:27:42;;;;;;;9.63;5.72;;;16.70;99.90;;;;;;5055059;28;20436;-63
2022/08/05 05:30:08;;;;;;;10.65;6.00;;;16.70;99.90;;;;;;5055168;28;20036;-63
2022/08/05 05:32:34;;;;;;;8.88;5.43;;;16.90;99.90;;;;;;5055094;28;20042;-62
2022/08/05 05:34:59;;;;;;;9.23;5.60;;;17.00;99.90;;;;;;5054808;28;20115;-62
2022/08/05 05:37:25;;;;;;;9.77;6.45;;;17.00;99.90;;;;;;5057196;28;20051;-62
2022/08/05 05:39:51;;;;;;;9.35;5.22;;;17.00;99.90;;;;;;5074884;28;20556;-62
2022/08/05 05:42:16;;;;;;;7.72;5.55;;;16.90;99.90;;;;;;5074692;28;20052;-63
2022/08/05 05:44:42;;;;;;;9.73;5.63;;;16.70;99.90;;;;;;5074774;28;20106;-62
2022/08/05 05:47:08;;;;;;;8.30;5.85;;;16.60;99.90;;;;;;5074363;28;20046;-63
2022/08/05 05:49:33;;;;;;;8.60;5.82;;;16.80;99.90;;;;;;5074700;28;20118;-63
2022/08/05 05:52:00;;;;;;;10.52;5.55;;;16.90;99.90;;;;;;5074769;28;20500;-62
2022/08/05 05:54:25;;;;;;;7.53;5.10;;;16.80;99.90;;;;;;5074339;28;20044;-63
2022/08/05 05:56:51;;;;;;;10.77;5.50;;;16.90;99.90;;;;;;5074390;28;20048;-62
2022/08/05 05:59:17;;;;;;;10.65;6.28;;;16.90;99.90;;;;;;5074389;28;20093;-62
2022/08/05 06:01:42;;;;;;;7.93;6.03;;;17.00;99.90;;;;;;5074461;28;20053;-63
2022/08/05 06:04:10;;;;;;;10.50;5.80;;;17.10;99.90;;;;;;5074313;28;20044;-62
2022/08/05 06:06:36;;;;;;;7.88;4.95;;;17.40;99.90;;;;;;5074406;28;20397;-63
2022/08/05 06:09:04;;;;;;;8.48;5.30;;;17.40;99.90;;;;;;5074199;28;20043;-62
2022/08/05 06:11:33;;;;;;;7.30;4.93;;;17.50;99.90;;;;;;5073033;28;20369;-62
2022/08/05 06:13:59;;;;;;;9.50;5.57;;;17.70;99.90;;;;;;5074190;28;20141;-63
2022/08/05 06:16:25;;;;;;;9.10;5.15;;;17.60;99.90;;;;;;5074133;28;20033;-63
2022/08/05 06:18:50;;;;;;;9.98;5.38;;;17.80;99.90;;;;;;5072872;28;20508;-63
2022/08/05 06:21:17;;;;;;;7.95;5.00;;;18.10;99.90;;;;;;5054097;28;20121;-64
2022/08/05 06:23:42;;;;;;;8.60;4.95;;;18.00;99.90;;;;;;5053631;28;20370;-63
2022/08/05 06:26:08;;;;;;;9.30;5.05;;;18.20;99.90;;;;;;5053772;28;20047;-63
2022/08/05 06:28:35;;;;;;;6.95;4.50;;;18.20;99.90;;;;;;5053966;28;20087;-63
2022/08/05 06:31:01;;;;;;;7.93;3.75;;;18.20;99.90;;;;;;5053864;28;20041;-63
2022/08/05 06:33:27;;;;;;;5.78;3.33;;;18.20;99.90;;;;;;5053888;28;20059;-62
2022/08/05 06:35:52;;;;;;;7.93;2.70;;;18.30;99.90;;;;;;5053650;28;20060;-63
2022/08/05 06:38:18;;;;;;;5.63;2.05;;;18.40;99.90;;;;;;5063202;28;20037;-63
2022/08/05 06:40:44;;;;;;;5.15;1.90;;;18.50;99.90;;;;;;5073831;28;20048;-62
2022/08/05 06:43:09;;;;;;;5.20;2.20;;;18.50;99.90;;;;;;5073792;28;20044;-62
2022/08/05 06:45:35;;;;;;;5.28;2.03;;;18.70;99.90;;;;;;5073645;28;20032;-63
2022/08/05 06:48:01;;;;;;;5.78;1.65;;;18.80;99.90;;;;;;5073651;28;20051;-63
2022/08/05 06:50:26;;;;;;;5.72;1.70;;;18.80;99.90;;;;;;5073486;28;20627;-62
2022/08/05 06:52:52;;;;;;;5.63;1.80;;;18.70;99.90;;;;;;5072659;28;20443;-62
2022/08/05 06:55:18;;;;;;;3.70;1.35;;;18.70;99.90;;;;;;5072384;28;20139;-62
2022/08/05 06:57:44;;;;;;;6.50;2.00;;;18.80;99.90;;;;;;5071744;28;20127;-62
2022/08/05 07:00:10;;;;;;;3.65;1.50;;;19.00;99.90;;;;;;5072452;28;20044;-62
2022/08/05 07:02:43;;;;;;;5.72;1.70;;;19.10;99.90;;;;;;5072417;28;20579;-63
2022/08/05 07:05:10;;;;;;;5.50;1.48;;;19.30;99.90;;;;;;5072286;28;20464;-62
2022/08/05 07:07:36;;;;;;;7.32;1.90;;;19.30;99.90;;;;;;5072233;28;20120;-62
2022/08/05 07:10:02;;;;;;;7.90;1.40;;;19.30;99.90;;;;;;5072330;28;20170;-62
2022/08/05 07:17:56;;;;;;;3.63;1.42;;;19.00;99.90;;;;;;5072220;28;20093;-62
2022/08/05 07:20:21;;;;;;;4.03;1.35;;;19.10;99.90;;;;;;5060159;28;20044;-63
2022/08/05 07:22:47;;;;;;;4.30;1.10;;;19.20;99.90;;;;;;5052319;28;20041;-63
2022/08/05 07:25:13;;;;;;;6.72;1.25;;;19.30;99.90;;;;;;5051857;28;20366;-62
2022/08/05 07:27:38;;;;;;;3.45;1.23;;;19.50;99.90;;;;;;5052099;28;20500;-63
2022/08/05 07:30:05;;;;;;;3.58;1.10;;;19.50;99.90;;;;;;5051958;28;20052;-62
2022/08/05 07:32:37;;;;;;;4.07;1.10;;;19.60;99.90;;;;;;5051891;28;20714;-63
2022/08/05 07:35:12;;;;;;;2.90;0.90;;;19.70;99.90;;;;;;5051773;28;20060;-62
2022/08/05 07:37:39;;;;;;;3.67;0.90;;;19.60;99.90;;;;;;5055736;28;20041;-62
2022/08/05 07:40:06;;;;;;;2.60;0.90;;;19.80;99.90;;;;;;5071871;28;20102;-63
2022/08/05 07:42:32;;;;;;;2.92;1.00;;;19.90;99.90;;;;;;5071958;28;20460;-62
2022/08/05 07:44:58;;;;;;;2.65;1.08;;;20.20;99.90;;;;;;5070312;28;20045;-63
2022/08/05 07:47:24;;;;;;;5.50;1.33;;;20.00;99.90;;;;;;5071832;28;20037;-63
2022/08/05 07:49:52;;;;;;;4.15;1.00;;;19.70;99.90;;;;;;5071820;28;20111;-62
2022/08/05 07:52:19;;;;;;;3.97;1.92;;;19.70;99.90;;;;;;5071576;28;20044;-62
2022/08/05 07:54:45;;;;;;;5.53;1.17;;;20.10;99.90;;;;;;5071492;28;20036;-63
2022/08/05 07:57:11;;;;;;;4.20;1.10;;;20.40;99.90;;;;;;5071891;28;20048;-63
2022/08/05 07:59:36;;;;;;;5.25;1.15;;;20.20;99.90;;;;;;5071435;28;20102;-63
2022/08/05 08:02:02;;;;;;;3.78;1.00;;;20.00;99.90;;;;;;5071472;28;20094;-63
2022/08/05 08:04:28;;;;;;;5.28;1.17;;;19.60;99.90;;;;;;5070180;28;20051;-62
2022/08/05 08:06:54;;;;;;;5.95;0.90;;;19.10;99.90;;;;;;5070148;28;20028;-63
2022/08/05 08:09:20;;;;;;;4.95;1.10;;;19.00;99.90;;;;;;5071348;28;20102;-63
2022/08/05 08:11:46;;;;;;;4.68;1.10;;;18.90;99.90;;;;;;5071320;28;20058;-62
2022/08/05 08:14:11;;;;;;;4.43;0.90;;;19.20;99.90;;;;;;5071406;28;20040;-60
2022/08/05 08:16:38;;;;;;;4.45;0.90;;;19.20;99.90;;;;;;5071272;28;20063;-60
2022/08/05 08:19:03;;;;;;;2.92;0.85;;;19.50;99.90;;;;;;5070028;28;20439;-60
2022/08/05 08:21:29;;;;;;;3.38;0.90;;;19.70;99.90;;;;;;5051033;28;20044;-61
2022/08/05 08:23:54;;;;;;;3.47;1.10;;;19.70;99.90;;;;;;5051089;28;20381;-61
2022/08/05 08:26:20;;;;;;;4.00;0.98;;;19.70;99.90;;;;;;5050817;28;20138;-61
2022/08/05 08:28:46;;;;;;;4.30;1.15;;;19.80;99.90;;;;;;5050619;28;20082;-61
2022/08/05 08:31:12;;;;;;;4.38;1.10;;;19.70;99.90;;;;;;5050898;28;20371;-60
2022/08/05 08:33:37;;;;;;;3.55;1.00;;;19.70;99.90;;;;;;5050685;28;20437;-62
2022/08/05 08:36:04;;;;;;;3.63;1.33;;;19.80;99.90;;;;;;5050426;28;20068;-61
2022/08/05 08:38:29;;;;;;;4.47;1.00;;;19.70;99.90;;;;;;5061799;28;20473;-60
2022/08/05 08:40:56;;;;;;;5.03;1.10;;;19.80;99.90;;;;;;5071072;28;20039;-61
2022/08/05 08:43:23;;;;;;;3.03;1.23;;;19.90;99.90;;;;;;5070970;28;20036;-61
2022/08/05 08:45:51;;;;;;;4.38;1.00;;;19.70;99.90;;;;;;5070994;28;20385;-60
2022/08/05 08:48:19;;;;;;;4.43;0.88;;;19.40;99.90;;;;;;5071187;28;20044;-61
2022/08/05 08:50:46;;;;;;;4.47;0.80;;;19.40;99.90;;;;;;5059649;28;20317;-61
2022/08/05 08:53:15;;;;;;;3.92;0.93;;;19.70;99.90;;;;;;5061561;28;20115;-60
2022/08/05 08:55:40;;;;;;;5.53;1.40;;;19.50;99.90;;;;;;5057600;28;20040;-61
2022/08/05 08:58:07;;;;;;;2.28;0.80;;;19.70;99.90;;;;;;5059085;28;20082;-61
2022/08/05 09:00:33;;;;;;;5.45;0.93;;;19.60;99.90;;;;;;5060727;28;20045;-60
2022/08/05 09:02:59;;;;;;;1.98;0.70;;;19.80;99.90;;;;;;5059650;28;20043;-59
2022/08/05 09:05:25;;;;;;;3.55;1.23;;;20.00;99.90;;;;;;5058775;28;20090;-61
2022/08/05 09:07:52;;;;;;;1.95;0.68;;;20.00;99.90;;;;;;5061270;28;20037;-60
2022/08/05 09:10:19;;;;;;;5.60;1.15;;;19.90;99.90;;;;;;5064922;28;20054;-60
2022/08/05 09:12:45;;;;;;;3.60;0.80;;;20.20;99.90;;;;;;5063798;28;20028;-60
2022/08/05 09:15:11;;;;;;;6.13;1.05;;;20.10;99.90;;;;;;5064098;28;20094;-60
2022/08/05 09:17:37;;;;;;;3.40;0.90;;;20.20;99.90;;;;;;5063800;28;20044;-61
2022/08/05 09:20:04;;;;;;;2.55;0.80;;;19.50;99.90;;;;;;5064784;28;20451;-64
2022/08/05 09:23:10;;;;;;;3.88;0.90;;;19.50;99.90;;;;;;5067871;28;20075;-59
2022/08/05 09:25:41;;;;;;;3.30;1.00;;;19.80;99.90;;;;;;5068873;28;20495;-59
2022/08/05 09:28:13;;;;;;;3.58;0.90;;;19.70;99.90;;;;;;5067128;28;20043;-59
2022/08/05 09:30:53;;;;;;;3.53;0.90;;;20.10;99.90;;;;;;5066498;28;20501;-60
2022/08/05 09:33:20;;;;;;;2.42;0.70;;;20.10;99.90;;;;;;5067433;28;20041;-61
2022/08/05 09:35:55;;;;;;;3.20;0.90;;;20.10;99.90;;;;;;5068103;28;20048;-60
2022/08/05 09:38:21;;;;;;;3.45;0.85;;;20.20;99.90;;;;;;5069263;28;20390;-59
2022/08/05 09:40:47;;;;;;;4.70;0.90;;;20.10;99.90;;;;;;5068778;28;20094;-60
2022/08/05 09:43:27;;;;;;;3.85;0.93;;;20.10;99.90;;;;;;5068852;28;20082;-60
2022/08/05 09:45:53;;;;;;;3.83;0.80;;;20.40;99.90;;;;;;5067423;28;20120;-60
2022/08/05 09:48:32;;;;;;;5.70;0.95;;;20.40;99.90;;;;;;5068042;28;20115;-60
2022/08/05 09:51:08;;;;;;;3.50;0.85;;;20.40;99.90;;;;;;5067692;28;20032;-60
2022/08/05 09:53:47;;;;;;;3.65;0.98;;;20.20;99.90;;;;;;5069404;28;20029;-60
2022/08/05 09:56:23;;;;;;;2.92;0.85;;;20.30;99.90;;;;;;5066847;28;20048;-60
2022/08/05 09:59:10;;;;;;;2.80;0.75;;;20.50;99.90;;;;;;5068062;28;20040;-60
2022/08/05 10:01:40;;;;;;;2.25;0.73;;;20.40;99.90;;;;;;5067463;28;20070;-61
2022/08/05 10:04:12;;;;;;;4.10;0.68;;;20.50;99.90;;;;;;5068553;28;20381;-60
2022/08/05 10:06:41;;;;;;;;;;;20.40;99.90;;;;;;5069281;28;20037;-60
2022/08/05 10:09:13;;;;;;;1.10;0.60;;;20.20;99.90;;;;;;5068305;28;19917;-60
2022/08/05 10:11:39;;;;;;;2.47;0.63;;;20.40;99.90;;;;;;5068309;28;20079;-60
2022/08/05 10:14:22;;;;;;;3.10;0.80;;;20.50;99.90;;;;;;5066446;28;20043;-60
2022/08/05 10:16:48;;;;;;;2.30;0.70;;;20.70;99.90;;;;;;5067316;28;20044;-61
2022/08/05 10:19:15;;;;;;;3.40;0.60;;;20.60;99.90;;;;;;5065843;28;20049;-61
2022/08/05 10:21:41;;;;;;;2.83;0.52;;;20.70;99.90;;;;;;5067674;28;20041;-61
2022/08/05 10:24:13;;;;;;;2.28;0.50;;;21.00;99.90;;;;;;5068435;28;20044;-60
2022/08/05 10:26:40;;;;;;;3.47;0.50;;;20.70;99.90;;;;;;5067352;28;20041;-61
2022/08/05 10:29:07;;;;;;;3.85;0.70;;;21.10;99.90;;;;;;5068712;28;20548;-60
2022/08/05 10:31:33;;;;;;;2.35;0.40;;;21.00;99.90;;;;;;5065555;28;20154;-60
2022/08/05 10:33:59;;;;;;;2.65;0.40;;;20.80;99.90;;;;;;5067161;28;20459;-60
2022/08/05 10:36:25;;;;;;;1.48;0.60;;;20.50;99.90;;;;;;5067581;28;20154;-59
2022/08/05 10:38:53;;;;;;;1.65;1.08;;;20.50;99.90;;;;;;5067775;28;20408;-60
2022/08/05 10:41:31;;;;;;;1.35;0.40;;;20.70;99.90;;;;;;5065778;28;20115;-60
2022/08/05 10:44:02;;;;;;;0.85;0.30;;;20.60;99.90;;;;;;5067257;28;20036;-59
2022/08/05 10:46:44;;;;;;;4.18;0.60;;;20.70;99.90;;;;;;5067295;28;20045;-59
2022/08/05 10:49:10;;;;;;;2.90;0.45;;;21.10;99.90;;;;;;5067920;28;20086;-60
2022/08/05 10:51:47;;;;;;;3.60;0.82;;;20.90;99.90;;;;;;5067738;28;20465;-60
2022/08/05 10:54:13;;;;;;;0.80;0.50;;;20.40;99.90;;;;;;5065011;28;20104;-60
2022/08/05 10:56:48;;;;;;;2.95;0.60;;;20.20;99.30;;;;;;5070645;28;20086;-60
2022/08/05 10:59:18;;;;;;;3.60;0.50;;;20.40;99.90;;;;;;5073026;28;20097;-60
2022/08/05 11:01:45;;;;;;;1.92;0.60;;;20.70;99.90;;;;;;5073084;28;20389;-60
2022/08/05 11:04:16;;;;;;;2.95;0.50;;;20.70;99.90;;;;;;5072779;28;20473;-60
2022/08/05 11:07:03;;;;;;;4.60;0.70;;;20.50;99.90;;;;;;5072925;28;20085;-60
2022/08/05 11:09:43;;;;;;;3.45;0.60;;;20.60;99.90;;;;;;5072433;28;20055;-60
2022/08/05 11:12:42;;;;;;;2.53;0.68;;;20.50;99.90;;;;;;5072964;28;20072;-60
2022/08/05 11:15:14;;;;;;;2.63;0.50;;;20.90;99.90;;;;;;5072660;28;20048;-59
2022/08/05 11:17:40;;;;;;;3.45;0.60;;;21.10;99.90;;;;;;5071562;28;20122;-60
2022/08/05 11:20:27;;;;;;;2.30;0.60;;;20.60;99.90;;;;;;5063032;28;20049;-60
2022/08/05 11:22:53;;;;;;;5.38;0.80;;;20.40;99.90;;;;;;5052791;28;20420;-60
2022/08/05 11:25:42;;;;;;;4.22;0.90;;;20.00;99.90;;;;;;5052702;28;20041;-60
2022/08/05 11:28:11;;;;;;;6.63;0.90;;;20.00;99.90;;;;;;5052702;28;20033;-60
2022/08/05 11:31:00;;;;;;;5.18;1.00;;;20.30;99.90;;;;;;5052960;28;20037;-60
2022/08/05 11:33:35;;;;;;;2.13;0.50;;;20.40;99.90;;;;;;5052394;28;20045;-60
2022/08/05 11:36:06;;;;;;;4.20;0.70;;;20.30;99.90;;;;;;5067910;28;20055;-60
2022/08/05 11:38:38;;;;;;;4.65;0.63;;;20.20;99.90;;;;;;5063938;28;20115;-59
2022/08/05 11:41:06;;;;;;;3.85;0.60;;;20.00;99.90;;;;;;5048521;28;20422;-60
2022/08/05 11:43:32;;;;;;;2.97;0.73;;;20.40;99.90;;;;;;5032133;28;20041;-59
2022/08/05 11:45:59;;;;;;;2.55;0.60;;;20.20;99.90;;;;;;5032391;28;20084;-60
2022/08/05 11:48:25;;;;;;;2.92;0.73;;;20.00;99.90;;;;;;5032386;28;20041;-60
2022/08/05 11:50:51;;;;;;;4.00;0.70;;;19.90;99.90;;;;;;5032323;28;20501;-59
2022/08/05 11:53:18;;;;;;;3.03;0.73;;;20.30;99.90;;;;;;5032437;28;20149;-60
2022/08/05 11:55:53;;;;;;;2.72;0.63;;;20.50;99.90;;;;;;5032459;28;20037;-60
2022/08/05 11:58:30;;;;;;;5.75;0.80;;;20.20;99.90;;;;;;5048013;28;20084;-60
2022/08/05 12:01:07;;;;;;;6.15;0.70;;;19.50;99.90;;;;;;5032419;28;20041;-61
2022/08/05 12:03:54;;;;;;;3.35;0.70;;;19.40;99.90;;;;;;5032295;28;20037;-61
2022/08/05 12:06:21;;;;;;;5.18;0.80;;;19.00;99.90;;;;;;5032517;28;20045;-60
2022/08/05 12:08:52;;;;;;;3.72;0.70;;;18.90;99.90;;;;;;5031016;28;20068;-61
2022/08/05 12:11:23;;;;;;;1.65;0.50;;;18.90;99.90;;;;;;5032303;28;20389;-60
2022/08/05 12:14:03;;;;;;;1.83;0.50;;;19.10;99.90;;;;;;5032189;28;20037;-61
2022/08/05 12:16:34;;;;;;;2.78;0.60;;;19.20;99.90;;;;;;5032000;28;20037;-60
2022/08/05 12:19:00;;;;;;;4.88;0.90;;;18.90;99.90;;;;;;5031495;28;20045;-60
2022/08/05 12:21:34;;;;;;;3.78;0.68;;;19.00;99.90;;;;;;5052084;28;20392;-60
2022/08/05 12:24:03;;;;;;;6.18;0.80;;;18.90;99.90;;;;;;5052179;28;20033;-60
2022/08/05 12:26:31;;;;;;;4.97;1.40;;;19.20;99.90;;;;;;5051893;28;20044;-61
2022/08/05 12:28:56;;;;;;;4.72;0.85;;;19.30;99.90;;;;;;5050869;28;20045;-60
2022/08/05 12:31:22;;;;;;;3.83;1.00;;;19.30;99.90;;;;;;5052147;28;20370;-61
2022/08/05 12:33:49;;;;;;;4.55;0.75;;;19.20;99.90;;;;;;5052035;28;20033;-60
2022/08/05 12:36:16;;;;;;;3.05;0.60;;;19.50;99.90;;;;;;5051816;28;20053;-61
2022/08/05 12:38:42;;;;;;;1.52;0.50;;;19.30;99.90;;;;;;5064630;28;20062;-60
2022/08/05 12:41:12;;;;;;;3.63;0.75;;;19.70;99.90;;;;;;5070913;28;20496;-60
2022/08/05 12:43:55;;;;;;;3.67;0.70;;;19.80;99.90;;;;;;5070711;28;20055;-58
2022/08/05 12:46:26;;;;;;;2.20;0.60;;;20.00;99.90;;;;;;5071743;28;20036;-58
2022/08/05 12:48:59;;;;;;;2.03;0.50;;;20.20;99.90;;;;;;5071523;28;20037;-60
2022/08/05 12:51:26;;;;;;;2.22;0.50;;;20.00;99.90;;;;;;5071440;28;20036;-61
2022/08/05 12:53:58;;;;;;;2.40;0.57;;;20.20;99.90;;;;;;5071357;28;20041;-60
2022/08/05 12:56:24;;;;;;;;;;;19.80;99.90;;;;;;5074046;28;20124;-60
2022/08/05 12:59:27;;;;;;;1.45;0.50;;;19.50;99.90;;;;;;5075655;28;20469;-60
2022/08/05 13:01:58;;;;;;;4.47;1.40;;;19.50;99.90;;;;;;5075308;28;20093;-60